sensor_id;sensor_type;location;lat;lon;timestamp;pressure;altitude;pressure_sealevel;temperature;humidity
46408;BME280;32110;45.724;21.276;2023-09-08T02:02:40;100996.22;;;15.81;nan
46408;BME280;32110;45.724;21.276;2023-09-08T03:05:42;101023.00;;;15.63;nan
46408;BME280;32110;45.724;21.276;2023-09-08T04:18:30;101122.63;;;14.91;nan
46408;BME280;32110;45.724;21.276;2023-09-08T04:47:35;101104.81;;;15.03;nan
46408;BME280;32110;45.724;21.276;2023-09-08T04:59:41;101119.84;;;15.43;nan
46408;BME280;32110;45.724;21.276;2023-09-08T05:02:07;101099.50;;;15.49;nan
46408;BME280;32110;45.724;21.276;2023-09-08T05:21:40;101124.09;;;16.07;nan
46408;BME280;32110;45.724;21.276;2023-09-08T05:48:19;101116.00;;;16.79;nan
46408;BME280;32110;45.724;21.276;2023-09-08T06:41:39;101154.22;;;18.57;nan
46408;BME280;32110;45.724;21.276;2023-09-08T07:03:38;101089.88;;;19.31;nan
46408;BME280;32110;45.724;21.276;2023-09-08T07:06:04;101144.09;;;19.42;nan
46408;BME280;32110;45.724;21.276;2023-09-08T07:10:54;101108.31;;;19.59;nan
46408;BME280;32110;45.724;21.276;2023-09-08T07:15:45;101099.50;;;19.79;nan
46408;BME280;32110;45.724;21.276;2023-09-08T07:18:11;101025.19;;;19.86;nan
46408;BME280;32110;45.724;21.276;2023-09-08T07:20:36;101100.00;;;20.01;nan
46408;BME280;32110;45.724;21.276;2023-09-08T07:25:28;101090.03;;;20.27;nan
46408;BME280;32110;45.724;21.276;2023-09-08T07:27:53;101089.72;;;20.39;nan
46408;BME280;32110;45.724;21.276;2023-09-08T07:30:20;101111.09;;;20.54;nan
46408;BME280;32110;45.724;21.276;2023-09-08T07:32:45;101110.78;;;20.61;nan
46408;BME280;32110;45.724;21.276;2023-09-08T07:35:10;101144.50;;;20.67;nan
46408;BME280;32110;45.724;21.276;2023-09-08T07:37:40;101104.28;;;20.77;nan
46408;BME280;32110;45.724;21.276;2023-09-08T07:40:08;101114.19;;;20.82;nan
46408;BME280;32110;45.724;21.276;2023-09-08T07:42:34;101061.41;;;20.93;nan
46408;BME280;32110;45.724;21.276;2023-09-08T07:47:25;101146.13;;;21.13;nan
46408;BME280;32110;45.724;21.276;2023-09-08T07:49:50;101085.78;;;21.25;nan
46408;BME280;32110;45.724;21.276;2023-09-08T07:52:15;101087.56;;;21.40;nan
46408;BME280;32110;45.724;21.276;2023-09-08T07:57:06;101074.31;;;21.54;nan
46408;BME280;32110;45.724;21.276;2023-09-08T07:59:31;101094.91;;;21.59;nan
46408;BME280;32110;45.724;21.276;2023-09-08T08:01:57;101098.91;;;21.61;nan
46408;BME280;32110;45.724;21.276;2023-09-08T08:04:22;101065.75;;;21.57;nan
46408;BME280;32110;45.724;21.276;2023-09-08T08:06:47;101059.69;;;21.71;nan
46408;BME280;32110;45.724;21.276;2023-09-08T08:09:16;101040.81;;;21.81;nan
46408;BME280;32110;45.724;21.276;2023-09-08T08:11:41;101093.66;;;22.04;nan
46408;BME280;32110;45.724;21.276;2023-09-08T08:14:07;101141.84;;;22.15;nan
46408;BME280;32110;45.724;21.276;2023-09-08T08:18:57;101137.41;;;22.29;nan
46408;BME280;32110;45.724;21.276;2023-09-08T08:21:22;101110.50;;;22.39;nan
46408;BME280;32110;45.724;21.276;2023-09-08T08:26:13;101097.44;;;22.51;nan
46408;BME280;32110;45.724;21.276;2023-09-08T08:28:39;101181.38;;;22.57;nan
46408;BME280;32110;45.724;21.276;2023-09-08T08:33:30;101098.88;;;22.87;nan
46408;BME280;32110;45.724;21.276;2023-09-08T08:35:56;101098.44;;;22.80;nan
46408;BME280;32110;45.724;21.276;2023-09-08T08:38:21;101110.59;;;22.91;nan
46408;BME280;32110;45.724;21.276;2023-09-08T08:40:47;101101.47;;;22.92;nan
46408;BME280;32110;45.724;21.276;2023-09-08T08:43:13;101114.81;;;22.97;nan
46408;BME280;32110;45.724;21.276;2023-09-08T08:45:41;101104.31;;;23.01;nan
46408;BME280;32110;45.724;21.276;2023-09-08T08:48:09;101067.44;;;23.06;nan
46408;BME280;32110;45.724;21.276;2023-09-08T08:50:35;101100.63;;;23.16;nan
46408;BME280;32110;45.724;21.276;2023-09-08T08:53:03;101114.47;;;23.23;nan
46408;BME280;32110;45.724;21.276;2023-09-08T08:55:30;101160.59;;;23.30;nan
46408;BME280;32110;45.724;21.276;2023-09-08T08:58:04;101107.84;;;23.34;nan
46408;BME280;32110;45.724;21.276;2023-09-08T09:00:34;101108.56;;;23.40;nan
46408;BME280;32110;45.724;21.276;2023-09-08T09:02:59;101099.81;;;23.48;nan
46408;BME280;32110;45.724;21.276;2023-09-08T09:05:27;101087.19;;;23.48;nan
46408;BME280;32110;45.724;21.276;2023-09-08T09:07:53;101152.84;;;23.61;nan
46408;BME280;32110;45.724;21.276;2023-09-08T09:10:22;101104.09;;;23.82;nan
46408;BME280;32110;45.724;21.276;2023-09-08T09:12:47;101094.34;;;23.86;nan
46408;BME280;32110;45.724;21.276;2023-09-08T09:15:13;101099.34;;;23.92;nan
46408;BME280;32110;45.724;21.276;2023-09-08T09:20:18;101083.28;;;24.01;nan
46408;BME280;32110;45.724;21.276;2023-09-08T09:22:46;101067.88;;;24.07;nan
46408;BME280;32110;45.724;21.276;2023-09-08T09:25:25;101104.72;;;24.20;nan
46408;BME280;32110;45.724;21.276;2023-09-08T09:27:55;101089.59;;;24.24;nan
46408;BME280;32110;45.724;21.276;2023-09-08T09:30:22;101096.88;;;24.37;nan
46408;BME280;32110;45.724;21.276;2023-09-08T09:32:47;101092.44;;;24.41;nan
46408;BME280;32110;45.724;21.276;2023-09-08T09:35:15;101033.22;;;24.41;nan
46408;BME280;32110;45.724;21.276;2023-09-08T09:37:41;101103.34;;;24.50;nan
46408;BME280;32110;45.724;21.276;2023-09-08T09:40:07;101133.53;;;24.61;nan
46408;BME280;32110;45.724;21.276;2023-09-08T09:42:38;101092.75;;;24.68;nan
46408;BME280;32110;45.724;21.276;2023-09-08T09:45:04;101080.06;;;24.68;nan
46408;BME280;32110;45.724;21.276;2023-09-08T09:47:30;101079.94;;;24.73;nan
46408;BME280;32110;45.724;21.276;2023-09-08T09:49:56;101087.19;;;24.87;nan
46408;BME280;32110;45.724;21.276;2023-09-08T09:52:24;101072.03;;;24.91;nan
46408;BME280;32110;45.724;21.276;2023-09-08T09:54:52;101134.88;;;25.00;nan
46408;BME280;32110;45.724;21.276;2023-09-08T09:57:21;101073.06;;;25.03;nan
46408;BME280;32110;45.724;21.276;2023-09-08T09:59:47;101073.31;;;25.16;nan
46408;BME280;32110;45.724;21.276;2023-09-08T10:04:42;101066.19;;;25.34;nan
46408;BME280;32110;45.724;21.276;2023-09-08T10:07:08;101084.44;;;25.37;nan
46408;BME280;32110;45.724;21.276;2023-09-08T10:09:36;101068.53;;;25.35;nan
46408;BME280;32110;45.724;21.276;2023-09-08T10:14:32;101064.00;;;25.44;nan
46408;BME280;32110;45.724;21.276;2023-09-08T10:16:59;101083.88;;;25.49;nan
46408;BME280;32110;45.724;21.276;2023-09-08T10:19:26;101130.50;;;25.49;nan
46408;BME280;32110;45.724;21.276;2023-09-08T10:21:55;101069.44;;;25.53;nan
46408;BME280;32110;45.724;21.276;2023-09-08T10:24:26;101035.38;;;25.57;nan
46408;BME280;32110;45.724;21.276;2023-09-08T10:27:11;101038.53;;;25.59;nan
46408;BME280;32110;45.724;21.276;2023-09-08T10:29:38;101074.56;;;25.63;nan
46408;BME280;32110;45.724;21.276;2023-09-08T10:32:04;101079.63;;;25.56;nan
46408;BME280;32110;45.724;21.276;2023-09-08T10:34:32;101037.13;;;25.62;nan
46408;BME280;32110;45.724;21.276;2023-09-08T10:36:58;101036.19;;;25.66;nan
46408;BME280;32110;45.724;21.276;2023-09-08T10:39:35;101102.19;;;25.69;nan
46408;BME280;32110;45.724;21.276;2023-09-08T10:47:22;101031.72;;;25.93;nan
46408;BME280;32110;45.724;21.276;2023-09-08T10:49:47;101080.50;;;26.05;nan
46408;BME280;32110;45.724;21.276;2023-09-08T10:52:13;101029.56;;;26.21;nan
46408;BME280;32110;45.724;21.276;2023-09-08T10:54:47;101031.16;;;26.40;nan
46408;BME280;32110;45.724;21.276;2023-09-08T10:57:14;101033.06;;;26.48;nan
46408;BME280;32110;45.724;21.276;2023-09-08T11:00:05;101017.56;;;26.54;nan
46408;BME280;32110;45.724;21.276;2023-09-08T11:02:41;101022.00;;;26.58;nan
46408;BME280;32110;45.724;21.276;2023-09-08T11:05:09;101026.72;;;26.52;nan
46408;BME280;32110;45.724;21.276;2023-09-08T11:07:36;101032.47;;;26.51;nan
46408;BME280;32110;45.724;21.276;2023-09-08T11:10:04;101041.88;;;26.54;nan
46408;BME280;32110;45.724;21.276;2023-09-08T11:12:31;101019.75;;;26.69;nan
46408;BME280;32110;45.724;21.276;2023-09-08T11:14:57;101035.66;;;26.79;nan
46408;BME280;32110;45.724;21.276;2023-09-08T11:17:26;101014.97;;;26.92;nan
46408;BME280;32110;45.724;21.276;2023-09-08T11:19:53;101029.59;;;27.00;nan
46408;BME280;32110;45.724;21.276;2023-09-08T11:22:22;101007.78;;;27.05;nan
46408;BME280;32110;45.724;21.276;2023-09-08T11:24:49;101059.78;;;27.10;nan
46408;BME280;32110;45.724;21.276;2023-09-08T11:27:14;101058.06;;;27.06;nan
46408;BME280;32110;45.724;21.276;2023-09-08T11:32:08;101007.00;;;27.04;nan
46408;BME280;32110;45.724;21.276;2023-09-08T11:37:05;100995.25;;;27.00;nan
46408;BME280;32110;45.724;21.276;2023-09-08T11:39:30;100987.00;;;26.97;nan
46408;BME280;32110;45.724;21.276;2023-09-08T11:41:56;101062.03;;;27.00;nan
46408;BME280;32110;45.724;21.276;2023-09-08T11:44:24;101005.72;;;27.10;nan
46408;BME280;32110;45.724;21.276;2023-09-08T11:46:49;100994.41;;;27.17;nan
46408;BME280;32110;45.724;21.276;2023-09-08T11:49:19;100998.84;;;27.30;nan
46408;BME280;32110;45.724;21.276;2023-09-08T11:51:45;100964.88;;;27.50;nan
46408;BME280;32110;45.724;21.276;2023-09-08T11:54:11;100954.63;;;27.65;nan
46408;BME280;32110;45.724;21.276;2023-09-08T11:56:37;100972.03;;;27.55;nan
46408;BME280;32110;45.724;21.276;2023-09-08T11:59:03;100987.44;;;27.63;nan
46408;BME280;32110;45.724;21.276;2023-09-08T12:01:28;101000.69;;;27.56;nan
46408;BME280;32110;45.724;21.276;2023-09-08T12:03:55;100982.34;;;27.62;nan
46408;BME280;32110;45.724;21.276;2023-09-08T12:06:27;100963.25;;;27.58;nan
46408;BME280;32110;45.724;21.276;2023-09-08T12:09:00;100978.03;;;27.61;nan
46408;BME280;32110;45.724;21.276;2023-09-08T12:11:34;100971.84;;;27.60;nan
46408;BME280;32110;45.724;21.276;2023-09-08T12:14:20;100936.47;;;27.65;nan
46408;BME280;32110;45.724;21.276;2023-09-08T12:16:46;101013.69;;;27.63;nan
46408;BME280;32110;45.724;21.276;2023-09-08T12:19:31;100951.59;;;27.66;nan
46408;BME280;32110;45.724;21.276;2023-09-08T12:22:00;100944.41;;;27.70;nan
46408;BME280;32110;45.724;21.276;2023-09-08T12:27:16;100928.47;;;27.98;nan
46408;BME280;32110;45.724;21.276;2023-09-08T12:30:16;100950.34;;;28.14;nan
46408;BME280;32110;45.724;21.276;2023-09-08T12:32:41;100949.16;;;28.24;nan
46408;BME280;32110;45.724;21.276;2023-09-08T12:35:07;100927.28;;;28.29;nan
46408;BME280;32110;45.724;21.276;2023-09-08T12:37:33;100938.44;;;28.49;nan
46408;BME280;32110;45.724;21.276;2023-09-08T12:39:58;100944.91;;;28.56;nan
46408;BME280;32110;45.724;21.276;2023-09-08T12:42:26;100936.22;;;28.51;nan
46408;BME280;32110;45.724;21.276;2023-09-08T12:44:54;100956.63;;;28.48;nan
46408;BME280;32110;45.724;21.276;2023-09-08T12:47:20;100943.47;;;28.38;nan
46408;BME280;32110;45.724;21.276;2023-09-08T12:49:45;100948.28;;;28.32;nan
46408;BME280;32110;45.724;21.276;2023-09-08T12:52:11;100929.41;;;28.24;nan
46408;BME280;32110;45.724;21.276;2023-09-08T12:54:36;100982.38;;;28.33;nan
46408;BME280;32110;45.724;21.276;2023-09-08T12:57:02;100864.13;;;28.37;nan
46408;BME280;32110;45.724;21.276;2023-09-08T12:59:27;100928.13;;;28.42;nan
46408;BME280;32110;45.724;21.276;2023-09-08T13:01:53;100927.28;;;28.50;nan
46408;BME280;32110;45.724;21.276;2023-09-08T13:04:18;100897.28;;;28.55;nan
46408;BME280;32110;45.724;21.276;2023-09-08T13:06:44;100935.25;;;28.68;nan
46408;BME280;32110;45.724;21.276;2023-09-08T13:09:10;100914.41;;;28.80;nan
46408;BME280;32110;45.724;21.276;2023-09-08T13:11:36;100870.91;;;28.89;nan
46408;BME280;32110;45.724;21.276;2023-09-08T13:14:01;100915.88;;;28.90;nan
46408;BME280;32110;45.724;21.276;2023-09-08T13:16:26;100893.50;;;28.81;nan
46408;BME280;32110;45.724;21.276;2023-09-08T13:18:52;100914.28;;;28.89;nan
46408;BME280;32110;45.724;21.276;2023-09-08T13:21:17;100903.91;;;28.91;nan
46408;BME280;32110;45.724;21.276;2023-09-08T13:23:43;100895.53;;;28.96;nan
46408;BME280;32110;45.724;21.276;2023-09-08T13:26:08;100898.75;;;29.11;nan
46408;BME280;32110;45.724;21.276;2023-09-08T13:28:33;100911.63;;;29.14;nan
46408;BME280;32110;45.724;21.276;2023-09-08T13:30:59;100911.25;;;29.03;nan
46408;BME280;32110;45.724;21.276;2023-09-08T13:33:24;100869.81;;;29.02;nan
46408;BME280;32110;45.724;21.276;2023-09-08T13:35:50;100880.41;;;28.95;nan
46408;BME280;32110;45.724;21.276;2023-09-08T13:38:15;100951.47;;;29.01;nan
46408;BME280;32110;45.724;21.276;2023-09-08T13:40:40;100867.97;;;28.94;nan
46408;BME280;32110;45.724;21.276;2023-09-08T13:43:08;100873.84;;;28.96;nan
46408;BME280;32110;45.724;21.276;2023-09-08T13:45:33;100878.72;;;28.91;nan
46408;BME280;32110;45.724;21.276;2023-09-08T13:47:59;100871.81;;;28.93;nan
46408;BME280;32110;45.724;21.276;2023-09-08T13:50:24;100862.31;;;28.87;nan
46408;BME280;32110;45.724;21.276;2023-09-08T13:52:49;100914.50;;;28.84;nan
46408;BME280;32110;45.724;21.276;2023-09-08T13:55:15;100875.31;;;28.81;nan
46408;BME280;32110;45.724;21.276;2023-09-08T13:57:40;100875.63;;;28.80;nan
46408;BME280;32110;45.724;21.276;2023-09-08T14:00:06;100869.25;;;28.51;nan
46408;BME280;32110;45.724;21.276;2023-09-08T14:02:34;100867.38;;;28.64;nan
46408;BME280;32110;45.724;21.276;2023-09-08T14:05:00;100866.72;;;28.67;nan
46408;BME280;32110;45.724;21.276;2023-09-08T14:07:25;100905.31;;;28.64;nan
46408;BME280;32110;45.724;21.276;2023-09-08T14:09:50;100857.91;;;28.70;nan
46408;BME280;32110;45.724;21.276;2023-09-08T14:12:16;100861.16;;;28.63;nan
46408;BME280;32110;45.724;21.276;2023-09-08T14:14:41;100840.84;;;28.70;nan
46408;BME280;32110;45.724;21.276;2023-09-08T14:17:06;100855.53;;;28.69;nan
46408;BME280;32110;45.724;21.276;2023-09-08T14:19:32;100889.97;;;28.68;nan
46408;BME280;32110;45.724;21.276;2023-09-08T14:21:57;100862.06;;;28.68;nan
46408;BME280;32110;45.724;21.276;2023-09-08T14:24:23;100843.09;;;28.68;nan
46408;BME280;32110;45.724;21.276;2023-09-08T14:26:48;100838.13;;;28.57;nan
46408;BME280;32110;45.724;21.276;2023-09-08T14:29:15;100846.03;;;28.62;nan
46408;BME280;32110;45.724;21.276;2023-09-08T14:31:40;100851.44;;;28.62;nan
46408;BME280;32110;45.724;21.276;2023-09-08T14:34:06;100854.63;;;28.65;nan
46408;BME280;32110;45.724;21.276;2023-09-08T14:36:32;100857.88;;;28.58;nan
46408;BME280;32110;45.724;21.276;2023-09-08T14:38:57;100846.00;;;28.50;nan
46408;BME280;32110;45.724;21.276;2023-09-08T14:41:23;100820.44;;;28.39;nan
46408;BME280;32110;45.724;21.276;2023-09-08T14:43:48;100850.38;;;28.42;nan
46408;BME280;32110;45.724;21.276;2023-09-08T14:46:14;100840.78;;;28.45;nan
46408;BME280;32110;45.724;21.276;2023-09-08T14:48:39;100853.34;;;28.50;nan
46408;BME280;32110;45.724;21.276;2023-09-08T14:51:04;100884.44;;;28.43;nan
46408;BME280;32110;45.724;21.276;2023-09-08T14:53:30;100833.16;;;28.47;nan
46408;BME280;32110;45.724;21.276;2023-09-08T14:55:57;100882.88;;;28.42;nan
46408;BME280;32110;45.724;21.276;2023-09-08T14:58:24;100819.59;;;28.47;nan
46408;BME280;32110;45.724;21.276;2023-09-08T15:00:50;100829.03;;;28.41;nan
46408;BME280;32110;45.724;21.276;2023-09-08T15:03:16;100817.72;;;28.39;nan
46408;BME280;32110;45.724;21.276;2023-09-08T15:05:41;100798.75;;;28.27;nan
46408;BME280;32110;45.724;21.276;2023-09-08T15:08:07;100837.69;;;28.34;nan
46408;BME280;32110;45.724;21.276;2023-09-08T15:10:32;100882.50;;;28.32;nan
46408;BME280;32110;45.724;21.276;2023-09-08T15:12:58;100847.16;;;28.28;nan
46408;BME280;32110;45.724;21.276;2023-09-08T15:15:23;100822.34;;;28.26;nan
46408;BME280;32110;45.724;21.276;2023-09-08T15:17:53;100832.56;;;28.20;nan
46408;BME280;32110;45.724;21.276;2023-09-08T15:20:19;100819.69;;;28.17;nan
46408;BME280;32110;45.724;21.276;2023-09-08T15:22:45;100810.66;;;28.13;nan
46408;BME280;32110;45.724;21.276;2023-09-08T15:25:11;100826.00;;;28.09;nan
46408;BME280;32110;45.724;21.276;2023-09-08T15:27:37;100775.03;;;28.11;nan
46408;BME280;32110;45.724;21.276;2023-09-08T15:30:03;100841.66;;;28.04;nan
46408;BME280;32110;45.724;21.276;2023-09-08T15:32:29;100827.22;;;27.99;nan
46408;BME280;32110;45.724;21.276;2023-09-08T15:34:54;100843.66;;;27.94;nan
46408;BME280;32110;45.724;21.276;2023-09-08T15:37:20;100810.38;;;27.94;nan
46408;BME280;32110;45.724;21.276;2023-09-08T15:39:45;100819.63;;;27.93;nan
46408;BME280;32110;45.724;21.276;2023-09-08T15:42:12;100834.72;;;27.94;nan
46408;BME280;32110;45.724;21.276;2023-09-08T15:44:37;100796.16;;;27.85;nan
46408;BME280;32110;45.724;21.276;2023-09-08T15:47:03;100810.09;;;27.87;nan
46408;BME280;32110;45.724;21.276;2023-09-08T15:49:28;100827.03;;;27.84;nan
46408;BME280;32110;45.724;21.276;2023-09-08T15:51:54;100815.13;;;27.76;nan
46408;BME280;32110;45.724;21.276;2023-09-08T15:54:19;100822.78;;;27.74;nan
46408;BME280;32110;45.724;21.276;2023-09-08T15:56:46;100813.59;;;27.66;nan
46408;BME280;32110;45.724;21.276;2023-09-08T15:59:13;100807.00;;;27.55;nan
46408;BME280;32110;45.724;21.276;2023-09-08T16:01:39;100787.06;;;27.60;nan
46408;BME280;32110;45.724;21.276;2023-09-08T16:04:04;100850.59;;;27.53;nan
46408;BME280;32110;45.724;21.276;2023-09-08T16:06:34;100782.97;;;27.53;nan
46408;BME280;32110;45.724;21.276;2023-09-08T16:09:00;100835.69;;;27.47;nan
46408;BME280;32110;45.724;21.276;2023-09-08T16:11:25;100810.31;;;27.40;nan
46408;BME280;32110;45.724;21.276;2023-09-08T16:13:51;100776.72;;;27.41;nan
46408;BME280;32110;45.724;21.276;2023-09-08T16:16:17;100853.94;;;27.29;nan
46408;BME280;32110;45.724;21.276;2023-09-08T16:18:42;100868.59;;;27.28;nan
46408;BME280;32110;45.724;21.276;2023-09-08T16:21:08;100737.84;;;27.24;nan
46408;BME280;32110;45.724;21.276;2023-09-08T16:23:33;100787.50;;;27.20;nan
46408;BME280;32110;45.724;21.276;2023-09-08T16:25:58;100789.59;;;27.14;nan
46408;BME280;32110;45.724;21.276;2023-09-08T16:28:24;100770.19;;;27.12;nan
46408;BME280;32110;45.724;21.276;2023-09-08T16:30:49;100762.16;;;27.03;nan
46408;BME280;32110;45.724;21.276;2023-09-08T16:33:15;100812.06;;;27.06;nan
46408;BME280;32110;45.724;21.276;2023-09-08T16:35:40;100824.81;;;26.97;nan
46408;BME280;32110;45.724;21.276;2023-09-08T16:38:07;100826.09;;;26.99;nan
46408;BME280;32110;45.724;21.276;2023-09-08T16:40:32;100804.50;;;26.90;nan
46408;BME280;32110;45.724;21.276;2023-09-08T16:42:58;100812.75;;;26.94;nan
46408;BME280;32110;45.724;21.276;2023-09-08T16:45:28;100820.72;;;26.90;nan
46408;BME280;32110;45.724;21.276;2023-09-08T16:47:53;100808.50;;;26.84;nan
46408;BME280;32110;45.724;21.276;2023-09-08T16:50:18;100830.00;;;26.72;nan
46408;BME280;32110;45.724;21.276;2023-09-08T16:52:44;100774.75;;;26.61;nan
46408;BME280;32110;45.724;21.276;2023-09-08T16:55:09;100813.19;;;26.58;nan
46408;BME280;32110;45.724;21.276;2023-09-08T16:57:37;100827.03;;;26.47;nan
46408;BME280;32110;45.724;21.276;2023-09-08T17:00:04;100829.91;;;26.34;nan
46408;BME280;32110;45.724;21.276;2023-09-08T17:02:29;100835.50;;;26.20;nan
46408;BME280;32110;45.724;21.276;2023-09-08T17:04:55;100801.06;;;26.08;nan
46408;BME280;32110;45.724;21.276;2023-09-08T17:07:20;100812.81;;;26.03;nan
46408;BME280;32110;45.724;21.276;2023-09-08T17:09:46;100819.00;;;25.95;nan
46408;BME280;32110;45.724;21.276;2023-09-08T17:12:12;100812.69;;;25.91;nan
46408;BME280;32110;45.724;21.276;2023-09-08T17:14:37;100830.09;;;25.76;nan
46408;BME280;32110;45.724;21.276;2023-09-08T17:17:02;100827.06;;;25.60;nan
46408;BME280;32110;45.724;21.276;2023-09-08T17:19:28;100871.13;;;25.47;nan
46408;BME280;32110;45.724;21.276;2023-09-08T17:21:54;100815.47;;;25.51;nan
46408;BME280;32110;45.724;21.276;2023-09-08T17:26:44;100834.19;;;25.39;nan
46408;BME280;32110;45.724;21.276;2023-09-08T17:29:10;100979.41;;;25.32;nan
46408;BME280;32110;45.724;21.276;2023-09-08T17:34:01;100836.69;;;25.27;nan
46408;BME280;32110;45.724;21.276;2023-09-08T17:36:26;100842.06;;;25.27;nan
46408;BME280;32110;45.724;21.276;2023-09-08T17:38:52;100828.25;;;25.19;nan
46408;BME280;32110;45.724;21.276;2023-09-08T17:41:17;100818.88;;;25.17;nan
46408;BME280;32110;45.724;21.276;2023-09-08T17:43:42;100832.88;;;25.19;nan
46408;BME280;32110;45.724;21.276;2023-09-08T17:46:08;100833.31;;;25.21;nan
46408;BME280;32110;45.724;21.276;2023-09-08T17:48:34;100895.28;;;25.12;nan
46408;BME280;32110;45.724;21.276;2023-09-08T17:50:59;100811.53;;;25.00;nan
46408;BME280;32110;45.724;21.276;2023-09-08T17:53:24;100838.97;;;25.11;nan
46408;BME280;32110;45.724;21.276;2023-09-08T17:55:50;100877.28;;;24.99;nan
46408;BME280;32110;45.724;21.276;2023-09-08T17:58:15;100902.16;;;24.96;nan
46408;BME280;32110;45.724;21.276;2023-09-08T18:00:41;100842.06;;;24.87;nan
46408;BME280;32110;45.724;21.276;2023-09-08T18:05:32;100858.28;;;24.64;nan
46408;BME280;32110;45.724;21.276;2023-09-08T18:07:57;100935.31;;;24.51;nan
46408;BME280;32110;45.724;21.276;2023-09-08T18:10:24;100859.38;;;24.40;nan
46408;BME280;32110;45.724;21.276;2023-09-08T18:12:49;100890.81;;;24.31;nan
46408;BME280;32110;45.724;21.276;2023-09-08T18:15:15;100864.00;;;24.26;nan
46408;BME280;32110;45.724;21.276;2023-09-08T18:17:43;100865.22;;;24.20;nan
46408;BME280;32110;45.724;21.276;2023-09-08T18:20:10;100809.25;;;24.08;nan
46408;BME280;32110;45.724;21.276;2023-09-08T18:22:36;100872.75;;;24.09;nan
46408;BME280;32110;45.724;21.276;2023-09-08T18:25:01;100869.34;;;24.04;nan
46408;BME280;32110;45.724;21.276;2023-09-08T18:27:27;100845.88;;;23.95;nan
46408;BME280;32110;45.724;21.276;2023-09-08T18:29:54;100854.97;;;23.86;nan
46408;BME280;32110;45.724;21.276;2023-09-08T18:32:20;100888.16;;;23.81;nan
46408;BME280;32110;45.724;21.276;2023-09-08T18:34:45;100850.00;;;23.79;nan
46408;BME280;32110;45.724;21.276;2023-09-08T18:39:36;100833.09;;;23.65;nan
46408;BME280;32110;45.724;21.276;2023-09-08T18:42:01;100825.91;;;23.60;nan
46408;BME280;32110;45.724;21.276;2023-09-08T18:44:27;100855.44;;;23.51;nan
46408;BME280;32110;45.724;21.276;2023-09-08T18:46:52;100900.72;;;23.44;nan
46408;BME280;32110;45.724;21.276;2023-09-08T18:49:17;100833.22;;;23.46;nan
46408;BME280;32110;45.724;21.276;2023-09-08T18:51:48;100780.19;;;23.38;nan
46408;BME280;32110;45.724;21.276;2023-09-08T18:56:39;100854.03;;;23.26;nan
46408;BME280;32110;45.724;21.276;2023-09-08T18:59:05;100841.59;;;23.17;nan
46408;BME280;32110;45.724;21.276;2023-09-08T19:01:30;100848.84;;;23.02;nan
46408;BME280;32110;45.724;21.276;2023-09-08T19:03:55;100846.44;;;23.01;nan
46408;BME280;32110;45.724;21.276;2023-09-08T19:06:21;100846.91;;;22.89;nan
46408;BME280;32110;45.724;21.276;2023-09-08T19:08:46;100847.81;;;22.84;nan
46408;BME280;32110;45.724;21.276;2023-09-08T19:11:12;100851.56;;;22.69;nan
46408;BME280;32110;45.724;21.276;2023-09-08T19:13:37;100837.38;;;22.50;nan
46408;BME280;32110;45.724;21.276;2023-09-08T19:16:02;100834.09;;;22.39;nan
46408;BME280;32110;45.724;21.276;2023-09-08T19:18:28;100848.06;;;22.36;nan
46408;BME280;32110;45.724;21.276;2023-09-08T19:20:53;100843.66;;;22.26;nan
46408;BME280;32110;45.724;21.276;2023-09-08T19:25:46;100855.41;;;22.12;nan
46408;BME280;32110;45.724;21.276;2023-09-08T19:28:11;100847.72;;;22.05;nan
46408;BME280;32110;45.724;21.276;2023-09-08T19:30:37;100838.25;;;21.94;nan
46408;BME280;32110;45.724;21.276;2023-09-08T19:33:03;100799.19;;;21.87;nan
46408;BME280;32110;45.724;21.276;2023-09-08T19:35:28;100825.88;;;21.79;nan
46408;BME280;32110;45.724;21.276;2023-09-08T19:37:54;100816.50;;;21.76;nan
46408;BME280;32110;45.724;21.276;2023-09-08T19:40:21;100856.50;;;21.73;nan
46408;BME280;32110;45.724;21.276;2023-09-08T19:42:47;100856.84;;;21.66;nan
46408;BME280;32110;45.724;21.276;2023-09-08T19:45:12;100803.31;;;21.61;nan
46408;BME280;32110;45.724;21.276;2023-09-08T19:47:38;100873.84;;;21.56;nan
46408;BME280;32110;45.724;21.276;2023-09-08T19:50:04;100866.09;;;21.55;nan
46408;BME280;32110;45.724;21.276;2023-09-08T19:52:30;100856.19;;;21.55;nan
46408;BME280;32110;45.724;21.276;2023-09-08T19:57:21;100856.63;;;21.38;nan
46408;BME280;32110;45.724;21.276;2023-09-08T19:59:46;100864.16;;;21.36;nan
46408;BME280;32110;45.724;21.276;2023-09-08T20:02:12;100874.97;;;21.26;nan
46408;BME280;32110;45.724;21.276;2023-09-08T20:07:04;100901.59;;;21.17;nan
46408;BME280;32110;45.724;21.276;2023-09-08T20:09:30;100839.75;;;21.14;nan
46408;BME280;32110;45.724;21.276;2023-09-08T20:11:55;100893.88;;;21.11;nan
46408;BME280;32110;45.724;21.276;2023-09-08T20:14:21;100887.31;;;20.98;nan
46408;BME280;32110;45.724;21.276;2023-09-08T20:16:46;100854.94;;;20.94;nan
46408;BME280;32110;45.724;21.276;2023-09-08T20:19:12;100840.69;;;20.75;nan
46408;BME280;32110;45.724;21.276;2023-09-08T20:21:38;100855.09;;;20.79;nan
46408;BME280;32110;45.724;21.276;2023-09-08T20:24:04;100865.91;;;20.69;nan
46408;BME280;32110;45.724;21.276;2023-09-08T20:26:31;100848.03;;;20.64;nan
46408;BME280;32110;45.724;21.276;2023-09-08T20:28:57;100860.63;;;20.58;nan
46408;BME280;32110;45.724;21.276;2023-09-08T20:31:22;100889.38;;;20.43;nan
46408;BME280;32110;45.724;21.276;2023-09-08T20:33:48;100857.56;;;20.36;nan
46408;BME280;32110;45.724;21.276;2023-09-08T20:36:14;100861.44;;;20.19;nan